createdAt,value
2018-02-19T00:01:50.735Z,63.67
2018-02-19T00:04:18.157Z,60.78
2018-02-19T00:06:45.585Z,58.47
2018-02-19T00:09:13.023Z,60.88
2018-02-19T00:11:40.448Z,51.40
2018-02-19T00:14:07.882Z,56.37
2018-02-19T00:16:35.303Z,47.35
2018-02-19T00:19:02.732Z,53.95
2018-02-19T00:21:30.159Z,54.15
2018-02-19T00:23:57.579Z,52.92
2018-02-19T00:26:25.002Z,65.90
2018-02-19T00:28:52.437Z,58.50
2018-02-19T00:31:19.855Z,59.33
2018-02-19T00:33:47.275Z,53.97
2018-02-19T00:36:14.707Z,53.40
2018-02-19T00:38:42.140Z,61.03
2018-02-19T00:41:09.575Z,53.20
2018-02-19T00:43:37.007Z,59.15
2018-02-19T00:46:04.439Z,60.83
2018-02-19T00:48:31.872Z,61.58
2018-02-19T00:50:59.291Z,57.10
2018-02-19T00:53:26.716Z,63.87
2018-02-19T00:55:54.137Z,67.78
2018-02-19T00:58:21.575Z,69.32
2018-02-19T01:00:48.982Z,65.20
2018-02-19T01:03:16.425Z,67.35
2018-02-19T01:05:43.852Z,78.43
2018-02-19T01:08:11.274Z,72.07
2018-02-19T01:10:38.719Z,75.07
2018-02-19T01:13:06.149Z,73.97
2018-02-19T01:15:33.591Z,72.95
2018-02-19T01:18:01.033Z,86.22
2018-02-19T01:20:28.455Z,87.57
2018-02-19T01:22:55.874Z,77.35
2018-02-19T01:25:23.306Z,86.40
2018-02-19T01:27:50.728Z,87.57
2018-02-19T01:30:18.142Z,76.12
2018-02-19T01:32:45.579Z,73.60
2018-02-19T01:35:12.995Z,67.18
2018-02-19T01:37:40.409Z,74.37
2018-02-19T01:40:07.843Z,72.85
2018-02-19T01:42:35.262Z,81.20
2018-02-19T01:45:02.684Z,82.60
2018-02-19T01:47:30.113Z,81.07
2018-02-19T01:50:09.227Z,76.37
2018-02-19T01:52:36.662Z,81.65
2018-02-19T01:55:04.082Z,75.57
2018-02-19T01:57:31.506Z,70.47
2018-02-19T01:59:58.939Z,77.78
2018-02-19T02:02:26.362Z,69.62
2018-02-19T02:04:53.780Z,77.03
2018-02-19T02:07:21.216Z,72.12
2018-02-19T02:09:48.639Z,75.72
2018-02-19T02:12:16.071Z,70.12
2018-02-19T02:14:43.498Z,70.95
2018-02-19T02:17:10.919Z,69.32
2018-02-19T02:19:38.343Z,74.80
2018-02-19T02:22:05.775Z,69.93
2018-02-19T02:24:33.166Z,70.85
2018-02-19T02:27:00.614Z,68.82
2018-02-19T02:29:28.054Z,70.10
2018-02-19T02:31:55.481Z,79.70
2018-02-19T02:34:22.894Z,74.75
2018-02-19T02:36:50.324Z,71.28
2018-02-19T02:39:17.753Z,67.18
2018-02-19T02:41:45.162Z,78.55
2018-02-19T02:44:12.611Z,65.25
2018-02-19T02:46:40.028Z,68.20
2018-02-19T02:49:07.451Z,78.10
2018-02-19T02:51:34.882Z,82.65
2018-02-19T02:54:02.303Z,72.50
2018-02-19T02:56:29.743Z,70.47
2018-02-19T02:58:57.172Z,73.72
2018-02-19T03:01:24.590Z,67.80
2018-02-19T03:03:52.020Z,68.40
2018-02-19T03:06:19.460Z,67.50
2018-02-19T03:08:46.881Z,66.03
2018-02-19T03:11:14.300Z,74.95
2018-02-19T03:13:41.738Z,77.00
2018-02-19T03:16:09.160Z,84.15
2018-02-19T03:18:36.578Z,75.55
2018-02-19T03:21:04.039Z,69.37
2018-02-19T03:23:31.455Z,73.05
2018-02-19T03:25:58.875Z,73.78
2018-02-19T03:28:26.307Z,74.65
2018-02-19T03:30:53.736Z,63.20
2018-02-19T03:33:21.158Z,76.65
2018-02-19T03:35:48.595Z,62.90
2018-02-19T03:38:16.020Z,65.12
2018-02-19T03:40:43.443Z,77.45
2018-02-19T03:43:10.879Z,78.97
2018-02-19T03:45:38.294Z,68.80
2018-02-19T03:48:05.712Z,66.75
2018-02-19T03:50:33.138Z,72.07
2018-02-19T03:53:00.558Z,63.55
2018-02-19T03:55:27.983Z,71.18
2018-02-19T03:57:55.416Z,67.95
2018-02-19T04:00:22.843Z,87.45
2018-02-19T04:02:50.259Z,66.20
2018-02-19T04:05:17.694Z,75.65
2018-02-19T04:07:45.106Z,68.72
2018-02-19T04:10:12.532Z,75.53
2018-02-19T04:12:39.963Z,68.45
2018-02-19T04:15:07.384Z,76.32
2018-02-19T04:17:34.802Z,72.18
2018-02-19T04:20:02.285Z,79.35
2018-02-19T04:22:29.657Z,78.07
2018-02-19T04:24:57.071Z,75.43
2018-02-19T04:27:24.511Z,74.10
2018-02-19T04:29:51.931Z,79.82
2018-02-19T04:32:19.357Z,76.87
2018-02-19T04:34:46.787Z,72.30
2018-02-19T04:37:14.202Z,71.45
2018-02-19T04:39:41.628Z,68.95
2018-02-19T04:42:09.059Z,78.25
2018-02-19T04:44:39.281Z,82.20
2018-02-19T04:47:06.698Z,81.10
2018-02-19T04:49:34.139Z,71.12
2018-02-19T04:52:01.587Z,72.18
2018-02-19T04:54:29.020Z,87.78
2018-02-19T04:56:56.454Z,67.00
2018-02-19T04:59:23.869Z,70.53
2018-02-19T05:01:51.291Z,69.80
2018-02-19T05:04:18.726Z,72.55
2018-02-19T05:06:46.165Z,67.53
2018-02-19T05:09:13.589Z,75.85
2018-02-19T05:11:41.034Z,62.85
2018-02-19T05:14:08.463Z,72.07
2018-02-19T05:16:35.887Z,57.10
2018-02-19T05:19:03.327Z,61.25
2018-02-19T05:21:30.746Z,56.92
2018-02-19T05:23:58.175Z,55.42
2018-02-19T05:26:25.611Z,59.42
2018-02-19T05:28:53.027Z,63.95
2018-02-19T05:31:20.452Z,61.00
2018-02-19T05:33:47.891Z,57.40
2018-02-19T05:36:15.316Z,57.80
2018-02-19T05:38:42.737Z,65.78
2018-02-19T05:41:11.010Z,59.85
2018-02-19T05:43:38.427Z,60.22
2018-02-19T05:46:05.858Z,67.30
2018-02-19T05:48:33.310Z,62.00
2018-02-19T05:51:00.747Z,57.33
2018-02-19T05:53:28.175Z,60.92
2018-02-19T05:55:55.616Z,62.45
2018-02-19T05:58:23.039Z,61.95
2018-02-19T06:00:50.478Z,62.53
2018-02-19T06:03:17.923Z,60.70
2018-02-19T06:05:45.345Z,59.70
2018-02-19T06:08:12.771Z,67.75
2018-02-19T06:10:40.216Z,61.35
2018-02-19T06:13:07.648Z,62.05
2018-02-19T06:15:35.072Z,58.10
2018-02-19T06:18:02.522Z,60.50
2018-02-19T06:20:29.948Z,60.83
2018-02-19T06:22:57.362Z,68.18
2018-02-19T06:25:24.803Z,53.13
2018-02-19T06:27:52.228Z,58.72
2018-02-19T06:30:19.655Z,58.47
2018-02-19T06:32:47.108Z,61.10
2018-02-19T06:35:14.532Z,67.60
2018-02-19T06:37:41.951Z,68.50
2018-02-19T06:40:09.387Z,63.78
2018-02-19T06:42:36.811Z,63.72
2018-02-19T06:45:04.235Z,70.40
2018-02-19T06:47:31.680Z,58.65
2018-02-19T06:49:59.099Z,57.95
2018-02-19T06:52:26.523Z,64.43
2018-02-19T06:54:53.963Z,59.88
2018-02-19T06:57:21.391Z,61.00
2018-02-19T06:59:48.811Z,57.47
2018-02-19T07:02:16.252Z,72.28
2018-02-19T07:04:43.679Z,80.45
2018-02-19T07:07:11.094Z,70.53
2018-02-19T07:09:38.543Z,62.58
2018-02-19T07:12:05.959Z,75.53
2018-02-19T07:14:33.387Z,67.10
2018-02-19T07:17:00.827Z,67.00
2018-02-19T07:19:28.242Z,72.20
2018-02-19T07:21:55.671Z,61.88
2018-02-19T07:24:23.106Z,58.75
2018-02-19T07:26:50.536Z,62.60
2018-02-19T07:29:17.964Z,61.35
2018-02-19T07:31:45.399Z,57.88
2018-02-19T07:34:12.844Z,60.47
2018-02-19T07:36:40.276Z,63.20
2018-02-19T07:39:07.706Z,63.47
2018-02-19T07:41:35.135Z,54.67
2018-02-19T07:44:02.565Z,59.75
2018-02-19T07:46:29.995Z,59.45
2018-02-19T07:48:57.415Z,60.80
2018-02-19T07:51:24.828Z,67.78
2018-02-19T07:53:52.268Z,58.63
2018-02-19T07:56:19.705Z,58.92
2018-02-19T07:58:47.127Z,53.42
2018-02-19T08:01:14.568Z,70.07
2018-02-19T08:03:41.991Z,56.63
2018-02-19T08:06:09.430Z,60.15
2018-02-19T08:08:36.864Z,69.07
2018-02-19T08:11:04.283Z,61.90
2018-02-19T08:13:31.707Z,60.10
2018-02-19T08:15:59.147Z,68.03
2018-02-19T08:18:26.571Z,57.15
2018-02-19T08:20:53.991Z,58.33
2018-02-19T08:23:21.435Z,55.88
2018-02-19T08:25:48.863Z,54.67
2018-02-19T08:28:16.303Z,73.18
2018-02-19T08:30:43.744Z,73.47
2018-02-19T08:33:11.167Z,75.00
2018-02-19T08:35:38.606Z,82.28
2018-02-19T08:38:06.044Z,81.75
2018-02-19T08:40:33.463Z,84.20
2018-02-19T08:43:00.886Z,84.87
2018-02-19T08:45:28.336Z,84.18
2018-02-19T08:47:55.763Z,95.97
2018-02-19T08:50:23.187Z,69.90
2018-02-19T08:52:50.630Z,62.15
2018-02-19T08:55:18.054Z,70.00
2018-02-19T08:57:45.470Z,70.12
2018-02-19T09:00:12.906Z,57.10
2018-02-19T09:02:40.342Z,67.28
2018-02-19T09:05:07.770Z,56.22
2018-02-19T09:07:35.208Z,75.10
2018-02-19T09:10:02.626Z,79.10
2018-02-19T09:12:30.067Z,83.30
2018-02-19T09:14:57.490Z,82.65
2018-02-19T09:17:24.925Z,75.03
2018-02-19T09:19:52.359Z,76.10
2018-02-19T09:22:19.783Z,78.55
2018-02-19T09:24:47.222Z,71.40
2018-02-19T09:27:14.672Z,79.00
2018-02-19T09:29:42.111Z,92.15
2018-02-19T09:32:09.543Z,93.35
2018-02-19T09:34:36.979Z,82.57
2018-02-19T09:37:04.419Z,89.10
2018-02-19T09:39:31.872Z,83.47
2018-02-19T09:41:59.307Z,76.25
2018-02-19T09:44:26.731Z,92.97
2018-02-19T09:46:54.180Z,83.70
2018-02-19T09:49:21.603Z,80.53
2018-02-19T09:51:49.035Z,85.95
2018-02-19T09:54:16.481Z,88.53
2018-02-19T09:56:43.900Z,86.50
2018-02-19T09:59:11.319Z,85.78
2018-02-19T10:01:38.771Z,72.85
2018-02-19T10:04:06.203Z,93.47
2018-02-19T10:06:33.619Z,85.07
2018-02-19T10:09:01.059Z,81.95
2018-02-19T10:11:29.306Z,79.45
2018-02-19T10:13:56.744Z,81.53
2018-02-19T10:16:24.406Z,78.10
2018-02-19T10:18:51.816Z,80.43
2018-02-19T10:21:19.257Z,81.68
2018-02-19T10:23:46.707Z,87.82
2018-02-19T10:26:14.143Z,79.37
2018-02-19T10:28:41.599Z,72.90
2018-02-19T10:31:09.027Z,77.78
2018-02-19T10:33:36.467Z,84.95
2018-02-19T10:36:03.913Z,77.25
2018-02-19T10:38:31.326Z,78.22
2018-02-19T10:40:59.093Z,84.45
2018-02-19T10:43:26.541Z,84.35
2018-02-19T10:45:53.959Z,90.50
2018-02-19T10:48:21.387Z,92.47
2018-02-19T10:50:48.801Z,88.57
2018-02-19T10:53:16.262Z,85.55
2018-02-19T10:55:43.688Z,98.05
2018-02-19T10:58:11.126Z,78.90
2018-02-19T11:00:44.111Z,88.25
2018-02-19T11:03:11.550Z,66.68
2018-02-19T11:05:39.000Z,95.22
2018-02-19T11:08:06.419Z,88.55
2018-02-19T11:10:33.862Z,78.35
2018-02-19T11:13:01.291Z,76.50
2018-02-19T11:15:28.720Z,85.47
2018-02-19T11:17:56.161Z,83.85
2018-02-19T11:20:23.593Z,87.35
2018-02-19T11:22:51.030Z,81.43
2018-02-19T11:25:18.471Z,94.28
2018-02-19T11:27:45.909Z,74.28
2018-02-19T11:30:13.345Z,80.07
2018-02-19T11:32:40.771Z,74.78
2018-02-19T11:35:08.200Z,78.97
2018-02-19T11:37:35.632Z,76.20
2018-02-19T11:40:03.112Z,75.53
2018-02-19T11:42:30.596Z,83.40
2018-02-19T11:44:58.022Z,79.43
2018-02-19T11:47:25.465Z,75.70
2018-02-19T11:49:52.895Z,72.70
2018-02-19T11:52:20.329Z,72.75
2018-02-19T11:54:47.763Z,75.15
2018-02-19T11:57:15.199Z,59.58
2018-02-19T11:59:42.615Z,74.85
2018-02-19T12:02:10.065Z,73.82
2018-02-19T12:04:37.496Z,73.72
2018-02-19T12:07:04.936Z,69.68
2018-02-19T12:09:32.386Z,68.22
2018-02-19T12:11:59.810Z,71.32
2018-02-19T12:14:27.249Z,69.43
2018-02-19T12:16:54.657Z,77.75
2018-02-19T12:19:22.156Z,78.75
2018-02-19T12:21:49.576Z,68.53
2018-02-19T12:24:17.011Z,71.80
2018-02-19T12:26:44.435Z,71.40
2018-02-19T12:29:11.858Z,72.32
2018-02-19T12:31:39.295Z,83.78
2018-02-19T12:34:06.720Z,77.80
2018-02-19T12:36:34.145Z,77.22
2018-02-19T12:39:01.583Z,72.93
2018-02-19T12:41:29.020Z,69.78
2018-02-19T12:43:56.447Z,67.50
2018-02-19T12:46:23.892Z,71.05
2018-02-19T12:48:51.312Z,67.78
2018-02-19T12:51:18.747Z,84.15
2018-02-19T12:53:46.208Z,68.03
2018-02-19T12:56:13.619Z,72.85
2018-02-19T12:58:41.047Z,82.40
2018-02-19T13:01:08.488Z,67.18
2018-02-19T13:03:35.909Z,75.47
2018-02-19T13:06:03.336Z,71.07
2018-02-19T13:08:30.779Z,71.35
2018-02-19T13:10:58.202Z,78.85
2018-02-19T13:13:25.627Z,77.78
2018-02-19T13:15:53.079Z,72.37
2018-02-19T13:18:20.501Z,88.82
2018-02-19T13:20:47.921Z,76.82
2018-02-19T13:23:15.363Z,79.75
2018-02-19T13:25:42.787Z,101.00
2018-02-19T13:28:10.211Z,69.12
2018-02-19T13:30:37.647Z,81.85
2018-02-19T13:33:05.075Z,98.03
2018-02-19T13:35:32.499Z,83.68
2018-02-19T13:37:59.935Z,83.10
2018-02-19T13:40:27.364Z,81.97
2018-02-19T13:42:54.796Z,71.05
2018-02-19T13:45:22.230Z,82.32
2018-02-19T13:47:49.646Z,85.47
2018-02-19T13:50:17.076Z,86.03
2018-02-19T13:52:44.507Z,86.80
2018-02-19T13:55:11.930Z,80.87
2018-02-19T13:57:39.368Z,72.00
2018-02-19T14:00:06.794Z,81.60
2018-02-19T14:02:34.227Z,77.95
2018-02-19T14:05:01.668Z,84.87
2018-02-19T14:07:29.303Z,92.22
2018-02-19T14:09:56.725Z,91.55
2018-02-19T14:12:24.172Z,105.10
2018-02-19T14:14:51.599Z,93.32
2018-02-19T14:17:19.034Z,89.78
2018-02-19T14:19:46.467Z,91.25
2018-02-19T14:22:13.896Z,95.10
2018-02-19T14:24:41.350Z,92.30
2018-02-19T14:27:08.792Z,95.25
2018-02-19T14:29:36.234Z,84.07
2018-02-19T14:32:03.644Z,91.90
2018-02-19T14:34:31.081Z,88.18
2018-02-19T14:36:58.532Z,94.05
2018-02-19T14:39:25.963Z,92.53
2018-02-19T14:41:53.411Z,94.20
2018-02-19T14:44:20.872Z,114.82
2018-02-19T14:46:48.311Z,93.40
2018-02-19T14:49:15.756Z,98.97
2018-02-19T14:51:43.236Z,97.95
2018-02-19T14:54:10.690Z,80.87
2018-02-19T14:56:38.147Z,93.43
2018-02-19T14:59:05.646Z,107.78
2018-02-19T15:01:33.075Z,108.10
2018-02-19T15:04:00.516Z,105.00
2018-02-19T15:06:28.059Z,109.35
2018-02-19T15:08:55.595Z,98.55
2018-02-19T15:11:23.056Z,99.60
2018-02-19T15:13:50.640Z,103.85
2018-02-19T15:16:18.173Z,97.30
2018-02-19T15:18:45.772Z,105.97
2018-02-19T15:21:13.271Z,108.57
2018-02-19T15:23:40.935Z,117.30
2018-02-19T15:26:08.411Z,100.82
2018-02-19T15:28:35.928Z,105.32
2018-02-19T15:31:03.386Z,118.18
2018-02-19T15:33:30.832Z,115.10
2018-02-19T15:35:58.266Z,119.78
2018-02-19T15:38:25.708Z,117.90
2018-02-19T15:40:53.244Z,130.15
2018-02-19T15:43:20.686Z,101.53
2018-02-19T15:45:48.119Z,120.15
2018-02-19T15:48:15.554Z,107.25
2018-02-19T15:50:42.979Z,96.32
2018-02-19T15:53:10.411Z,107.50
2018-02-19T15:55:37.851Z,113.53
2018-02-19T15:58:05.299Z,106.37
2018-02-19T16:00:32.817Z,101.53
2018-02-19T16:03:00.263Z,103.03
2018-02-19T16:05:27.655Z,100.55
2018-02-19T16:07:55.143Z,105.80
2018-02-19T16:10:22.576Z,95.53
2018-02-19T16:12:50.183Z,99.47
2018-02-19T16:15:17.651Z,121.95
2018-02-19T16:17:45.089Z,108.75
2018-02-19T16:20:12.521Z,115.05
2018-02-19T16:22:39.958Z,116.80
2018-02-19T16:25:07.403Z,121.87
2018-02-19T16:27:34.839Z,115.20
2018-02-19T16:30:02.296Z,100.55
2018-02-19T16:32:29.728Z,108.90
2018-02-19T16:34:57.187Z,123.90
2018-02-19T16:37:24.606Z,123.93
2018-02-19T16:39:52.081Z,123.85
2018-02-19T16:42:19.470Z,111.32
2018-02-19T16:44:46.927Z,118.68
2018-02-19T16:47:14.360Z,120.70
2018-02-19T16:49:41.883Z,113.20
2018-02-19T16:52:09.374Z,117.82
2018-02-19T16:54:36.831Z,120.20
2018-02-19T16:57:04.346Z,107.03
2018-02-19T16:59:31.820Z,118.10
2018-02-19T17:01:59.239Z,119.37
2018-02-19T17:04:26.686Z,146.90
2018-02-19T17:06:54.128Z,121.10
2018-02-19T17:09:21.615Z,107.15
2018-02-19T17:11:49.048Z,112.55
2018-02-19T17:14:16.554Z,115.30
2018-02-19T17:16:43.996Z,112.72
2018-02-19T17:19:11.428Z,103.62
2018-02-19T17:21:38.866Z,110.37
2018-02-19T17:24:06.299Z,104.93
2018-02-19T17:26:33.722Z,114.15
2018-02-19T17:29:01.163Z,121.85
2018-02-19T17:31:28.624Z,114.22
2018-02-19T17:33:56.043Z,122.70
2018-02-19T17:36:23.438Z,115.07
2018-02-19T17:38:50.903Z,110.05
2018-02-19T17:41:18.355Z,114.30
2018-02-19T17:43:45.818Z,115.03
2018-02-19T17:46:13.248Z,119.90
2018-02-19T17:48:40.999Z,113.37
2018-02-19T17:51:08.884Z,115.40
2018-02-19T17:53:36.378Z,114.82
2018-02-19T17:56:03.803Z,122.37
2018-02-19T17:58:31.279Z,128.05
2018-02-19T18:00:58.699Z,125.15
2018-02-19T18:03:26.143Z,127.53
2018-02-19T18:05:53.639Z,115.20
2018-02-19T18:08:21.058Z,111.43
2018-02-19T18:10:48.487Z,117.55
2018-02-19T18:13:15.960Z,121.57
2018-02-19T18:15:43.391Z,114.95
2018-02-19T18:18:10.909Z,125.95
2018-02-19T18:20:38.356Z,109.68
2018-02-19T18:23:05.807Z,121.95
2018-02-19T18:25:33.239Z,121.78
2018-02-19T18:28:00.703Z,128.75
2018-02-19T18:30:28.130Z,111.15
2018-02-19T18:32:55.557Z,120.00
2018-02-19T18:35:23.038Z,123.97
2018-02-19T18:37:50.462Z,119.35
2018-02-19T18:40:17.892Z,119.03
2018-02-19T18:42:45.335Z,142.90
2018-02-19T18:45:12.831Z,117.97
2018-02-19T18:47:40.275Z,122.57
2018-02-19T18:50:07.724Z,117.95
2018-02-19T18:52:35.202Z,113.18
2018-02-19T18:55:02.620Z,113.15
2018-02-19T18:57:30.058Z,125.62
2018-02-19T18:59:57.495Z,116.68
2018-02-19T19:02:24.910Z,138.48
2018-02-19T19:04:52.347Z,122.13
2018-02-19T19:07:31.451Z,120.68
2018-02-19T19:10:10.522Z,122.32
2018-02-19T19:12:37.950Z,127.35
2018-02-19T19:15:05.377Z,134.85
2018-02-19T19:17:32.823Z,120.68
2018-02-19T19:20:00.247Z,109.65
2018-02-19T19:22:27.669Z,123.22
2018-02-19T19:24:55.110Z,122.15
2018-02-19T19:27:22.529Z,127.03
2018-02-19T19:29:49.992Z,114.03
2018-02-19T19:32:17.452Z,120.45
2018-02-19T19:34:44.960Z,124.90
2018-02-19T19:37:12.420Z,107.05
2018-02-19T19:39:39.855Z,122.28
2018-02-19T19:42:07.308Z,125.28
2018-02-19T19:44:34.738Z,116.72
2018-02-19T19:47:02.174Z,128.40
2018-02-19T19:49:29.619Z,113.40
2018-02-19T19:51:57.083Z,107.57
2018-02-19T19:54:24.510Z,132.27
2018-02-19T19:56:51.947Z,110.37
2018-02-19T19:59:19.379Z,126.60
2018-02-19T20:01:46.818Z,122.82
2018-02-19T20:04:14.259Z,117.40
2018-02-19T20:06:41.704Z,125.65
2018-02-19T20:09:09.253Z,133.05
2018-02-19T20:11:36.711Z,113.97
2018-02-19T20:14:04.222Z,125.50
2018-02-19T20:16:31.658Z,134.05
2018-02-19T20:18:59.119Z,126.47
2018-02-19T20:21:26.551Z,118.95
2018-02-19T20:23:54.009Z,120.80
2018-02-19T20:26:21.435Z,118.93
2018-02-19T20:28:48.859Z,121.80
2018-02-19T20:31:16.380Z,114.05
2018-02-19T20:33:43.813Z,128.90
2018-02-19T20:36:11.255Z,131.70
2018-02-19T20:38:38.703Z,124.25
2018-02-19T20:41:06.134Z,142.25
2018-02-19T20:43:33.595Z,126.55
2018-02-19T20:46:01.030Z,121.40
2018-02-19T20:48:28.474Z,126.38
2018-02-19T20:50:55.903Z,133.50
2018-02-19T20:53:23.349Z,123.00
2018-02-19T20:55:50.795Z,135.23
2018-02-19T20:58:18.247Z,136.40
2018-02-19T21:00:45.699Z,140.52
2018-02-19T21:03:13.131Z,125.32
2018-02-19T21:05:40.588Z,127.30
2018-02-19T21:08:08.035Z,135.45
2018-02-19T21:10:35.464Z,123.07
2018-02-19T21:13:02.891Z,129.93
2018-02-19T21:15:30.330Z,136.75
2018-02-19T21:17:57.763Z,136.23
2018-02-19T21:20:25.195Z,132.30
2018-02-19T21:22:52.626Z,123.18
2018-02-19T21:25:20.098Z,130.32
2018-02-19T21:27:47.556Z,132.77
2018-02-19T21:30:14.996Z,134.93
2018-02-19T21:32:42.458Z,129.18
2018-02-19T21:35:09.891Z,146.37
2018-02-19T21:37:37.320Z,144.18
2018-02-19T21:40:04.776Z,137.88
2018-02-19T21:42:32.288Z,126.00
2018-02-19T21:44:59.710Z,134.00
2018-02-19T21:47:27.201Z,168.43
2018-02-19T21:49:54.674Z,143.68
2018-02-19T21:52:22.147Z,137.45
2018-02-19T21:54:49.587Z,141.48
2018-02-19T21:57:17.019Z,141.75
2018-02-19T21:59:44.439Z,153.60
2018-02-19T22:02:11.883Z,130.30
2018-02-19T22:04:39.317Z,140.02
2018-02-19T22:07:06.788Z,126.35
2018-02-19T22:09:34.251Z,141.02
2018-02-19T22:12:01.690Z,146.23
2018-02-19T22:14:29.126Z,154.48
2018-02-19T22:16:56.556Z,154.75
2018-02-19T22:19:24.087Z,141.73
2018-02-19T22:21:51.502Z,144.95
2018-02-19T22:24:18.980Z,125.20
2018-02-19T22:26:46.416Z,138.40
2018-02-19T22:29:13.871Z,134.50
2018-02-19T22:31:41.299Z,144.43
2018-02-19T22:34:08.740Z,135.48
2018-02-19T22:36:36.173Z,143.27
2018-02-19T22:39:03.627Z,142.52
2018-02-19T22:41:31.139Z,143.45
2018-02-19T22:43:58.563Z,126.40
2018-02-19T22:46:25.994Z,146.13
2018-02-19T22:48:53.431Z,139.02
2018-02-19T22:51:20.874Z,138.32
2018-02-19T22:53:48.308Z,134.57
2018-02-19T22:56:15.757Z,156.77
2018-02-19T22:58:43.196Z,155.93
2018-02-19T23:01:10.614Z,139.20
2018-02-19T23:03:38.066Z,141.27
2018-02-19T23:06:05.491Z,131.18
2018-02-19T23:08:32.923Z,141.25
2018-02-19T23:11:00.363Z,131.82
2018-02-19T23:13:27.796Z,135.57
2018-02-19T23:15:55.224Z,160.55
2018-02-19T23:18:22.673Z,141.32
2018-02-19T23:20:50.108Z,148.00
2018-02-19T23:23:17.530Z,149.38
2018-02-19T23:25:44.970Z,155.27
2018-02-19T23:28:12.399Z,143.98
2018-02-19T23:30:39.830Z,151.50
2018-02-19T23:33:07.267Z,139.88
2018-02-19T23:35:34.686Z,139.43
2018-02-19T23:38:02.117Z,148.57
2018-02-19T23:40:29.591Z,144.70
2018-02-19T23:42:57.011Z,142.90
2018-02-19T23:45:24.459Z,139.30
2018-02-19T23:47:51.991Z,138.20
2018-02-19T23:50:19.427Z,139.88
2018-02-19T23:52:46.876Z,139.23
2018-02-19T23:55:14.327Z,127.25
2018-02-19T23:57:41.747Z,142.48
